Time;durP1;ratioP1;P1;durP2;ratioP2;P2;SDS_P1;SDS_P2;PMS_P1;PMS_P2;Temp;Humidity;BMP_temperature;BMP_pressure;BME280_temperature;BME280_humidity;BME280_pressure;Samples;Min_cycle;Max_cycle;Signal;HPM_P1;HPM_P2
2023/07/10 00:00:17;;;;;;;1.40;1.40;;;24.30;70.90;;;;;;5086328;28;43371;-75
2023/07/10 00:02:48;;;;;;;1.13;1.13;;;24.30;71.10;;;;;;5084607;28;43865;-74
2023/07/10 00:05:18;;;;;;;1.30;1.30;;;24.30;71.20;;;;;;5088292;28;43466;-75
2023/07/10 00:07:46;;;;;;;1.10;1.10;;;24.30;71.00;;;;;;5077705;28;43860;-75
2023/07/10 00:10:17;;;;;;;1.30;1.30;;;24.40;70.70;;;;;;5071241;28;44903;-75
2023/07/10 00:12:45;;;;;;;1.40;1.40;;;24.50;70.30;;;;;;5070315;28;43411;-74
2023/07/10 00:15:15;;;;;;;1.20;1.20;;;24.60;70.10;;;;;;5081201;28;43414;-75
2023/07/10 00:17:45;;;;;;;1.23;1.23;;;24.50;69.90;;;;;;5063105;28;44016;-75
2023/07/10 00:20:15;;;;;;;1.20;1.20;;;24.50;70.00;;;;;;5066854;28;43493;-75
2023/07/10 00:22:43;;;;;;;1.33;1.33;;;24.40;70.30;;;;;;5074337;28;43459;-74
2023/07/10 00:25:11;;;;;;;1.20;1.20;;;24.40;70.40;;;;;;5068769;28;43377;-74
2023/07/10 00:27:40;;;;;;;1.20;1.20;;;24.40;70.50;;;;;;5070199;28;46996;-74
2023/07/10 00:30:15;;;;;;;1.37;1.37;;;24.40;70.60;;;;;;5085064;28;43341;-74
2023/07/10 00:32:43;;;;;;;1.20;1.20;;;24.40;70.90;;;;;;5080853;28;43428;-75
2023/07/10 00:35:17;;;;;;;1.20;1.20;;;24.30;70.90;;;;;;5072465;28;43527;-75
2023/07/10 00:37:47;;;;;;;1.30;1.30;;;24.30;71.60;;;;;;5069105;28;45963;-73
2023/07/10 00:40:19;;;;;;;1.23;1.23;;;24.30;70.90;;;;;;5081977;28;43822;-72
2023/07/10 00:42:58;;;;;;;1.30;1.30;;;24.30;71.20;;;;;;5069766;28;43432;-74
2023/07/10 00:45:26;;;;;;;1.30;1.30;;;24.30;71.20;;;;;;5069999;28;43358;-75
2023/07/10 00:48:00;;;;;;;1.20;1.20;;;24.30;71.10;;;;;;5054584;28;45624;-74
2023/07/10 00:50:31;;;;;;;1.30;1.30;;;24.40;70.80;;;;;;5083166;28;43372;-75
2023/07/10 00:52:59;;;;;;;1.20;1.20;;;24.50;70.40;;;;;;5070195;28;44043;-74
2023/07/10 00:55:31;;;;;;;1.57;1.53;;;24.60;70.20;;;;;;5070315;28;43421;-74
2023/07/10 00:58:06;;;;;;;1.27;1.27;;;24.60;70.90;;;;;;5068767;28;43844;-75
2023/07/10 01:01:02;;;;;;;1.20;1.20;;;24.50;70.20;;;;;;5075829;28;43450;-70
2023/07/10 01:03:31;;;;;;;1.40;1.40;;;24.40;70.50;;;;;;5057362;28;43518;-71
2023/07/10 01:06:00;;;;;;;1.10;1.10;;;24.40;70.50;;;;;;5057806;28;44095;-71
2023/07/10 01:08:29;;;;;;;1.10;1.10;;;24.40;70.50;;;;;;5067079;28;45422;-70
2023/07/10 01:10:57;;;;;;;1.33;1.33;;;24.40;70.70;;;;;;5071243;28;44025;-70
2023/07/10 01:13:26;;;;;;;1.20;1.20;;;24.30;70.90;;;;;;5053251;28;43400;-70
2023/07/10 01:15:54;;;;;;;1.20;1.20;;;24.30;71.00;;;;;;5078892;28;43435;-71
2023/07/10 01:18:24;;;;;;;1.10;1.10;;;24.40;70.80;;;;;;5070876;28;45368;-70
2023/07/10 01:21:15;;;;;;;1.33;1.33;;;24.50;70.60;;;;;;5068343;28;45115;-70
2023/07/10 01:23:43;;;;;;;1.20;1.20;;;24.50;70.50;;;;;;5068776;28;43470;-71
2023/07/10 01:26:11;;;;;;;1.30;1.30;;;24.40;70.60;;;;;;5068406;28;43554;-71
2023/07/10 01:28:39;;;;;;;1.23;1.23;;;24.40;70.70;;;;;;5070987;28;45902;-71
2023/07/10 01:31:10;;;;;;;1.20;1.20;;;24.40;70.60;;;;;;5071239;28;43951;-71
2023/07/10 01:33:40;;;;;;;1.20;1.20;;;24.40;70.60;;;;;;5076555;28;43515;-72
2023/07/10 01:36:11;;;;;;;1.30;1.30;;;24.40;70.70;;;;;;5057543;28;44036;-70
2023/07/10 01:38:43;;;;;;;1.37;1.37;;;24.40;71.00;;;;;;5076455;28;43872;-70
2023/07/10 01:41:21;;;;;;;1.17;1.17;;;24.30;70.90;;;;;;5073185;28;44058;-72
2023/07/10 01:43:49;;;;;;;1.30;1.30;;;24.30;70.90;;;;;;5078361;28;43421;-71
2023/07/10 01:46:18;;;;;;;1.30;1.30;;;24.30;70.90;;;;;;5083897;28;43690;-71
2023/07/10 01:48:47;;;;;;;1.20;1.20;;;24.30;71.20;;;;;;5077174;28;43622;-71
2023/07/10 01:51:16;;;;;;;1.20;1.20;;;24.30;71.20;;;;;;5087027;28;43894;-71
2023/07/10 01:53:45;;;;;;;1.10;1.10;;;24.40;71.00;;;;;;5078018;28;43467;-71
2023/07/10 01:56:14;;;;;;;1.37;1.37;;;24.50;70.70;;;;;;5074327;28;43345;-71
2023/07/10 01:58:42;;;;;;;1.20;1.20;;;24.50;70.20;;;;;;5070174;28;46022;-72
2023/07/10 02:01:10;;;;;;;1.20;1.20;;;24.60;70.00;;;;;;5066962;28;44906;-71
2023/07/10 02:03:38;;;;;;;1.30;1.30;;;24.60;70.10;;;;;;5068698;28;43441;-72
2023/07/10 02:06:06;;;;;;;1.30;1.30;;;24.50;70.10;;;;;;5070611;28;43475;-71
2023/07/10 02:08:36;;;;;;;1.10;1.10;;;24.50;70.50;;;;;;5068140;28;46144;-71
2023/07/10 02:11:04;;;;;;;1.30;1.30;;;24.50;70.60;;;;;;5064211;28;43787;-72
2023/07/10 02:13:32;;;;;;;1.10;1.10;;;24.40;70.50;;;;;;5064455;28;43452;-71
2023/07/10 02:16:02;;;;;;;1.30;1.30;;;24.40;70.60;;;;;;5061982;28;43455;-72
2023/07/10 02:18:32;;;;;;;1.30;1.30;;;24.30;70.90;;;;;;5069558;28;43671;-72
2023/07/10 02:21:00;;;;;;;1.10;1.10;;;24.30;70.90;;;;;;5068330;28;44078;-71
2023/07/10 02:23:28;;;;;;;1.10;1.10;;;24.30;70.90;;;;;;5061211;28;43356;-71
2023/07/10 02:25:58;;;;;;;1.20;1.20;;;24.30;71.00;;;;;;5077670;28;43530;-72
2023/07/10 02:28:26;;;;;;;1.17;1.17;;;24.30;71.20;;;;;;5081360;28;43834;-76
2023/07/10 02:30:54;;;;;;;1.30;1.30;;;24.20;71.10;;;;;;5069395;28;44988;-71
2023/07/10 02:33:22;;;;;;;1.10;1.10;;;24.30;71.20;;;;;;5078737;28;43854;-72
2023/07/10 02:35:50;;;;;;;1.30;1.30;;;24.30;71.20;;;;;;5065417;28;43521;-71
2023/07/10 02:38:20;;;;;;;1.20;1.20;;;24.30;71.30;;;;;;5071279;28;43965;-71
2023/07/10 02:40:47;;;;;;;1.00;1.00;;;24.20;71.40;;;;;;5086908;28;43396;-71
2023/07/10 02:43:17;;;;;;;1.10;1.10;;;24.30;71.50;;;;;;5065961;28;44024;-71
2023/07/10 02:45:45;;;;;;;1.40;1.40;;;24.40;71.10;;;;;;5069900;28;43506;-71
2023/07/10 02:48:14;;;;;;;1.10;1.10;;;24.50;70.80;;;;;;5065990;28;45994;-70
2023/07/10 02:50:42;;;;;;;1.30;1.30;;;24.60;70.40;;;;;;5067880;28;44731;-72
2023/07/10 02:53:10;;;;;;;1.30;1.30;;;24.60;70.10;;;;;;5065030;28;43461;-72
2023/07/10 02:55:38;;;;;;;1.23;1.23;;;24.60;70.10;;;;;;5086798;28;43391;-71
2023/07/10 02:58:07;;;;;;;1.30;1.30;;;24.50;70.10;;;;;;5081394;28;43764;-71
2023/07/10 03:00:36;;;;;;;1.30;1.30;;;24.50;70.40;;;;;;5065721;28;44957;-71
2023/07/10 03:03:04;;;;;;;1.33;1.33;;;24.50;70.50;;;;;;5070130;28;43901;-71
2023/07/10 03:05:32;;;;;;;1.40;1.40;;;24.40;70.50;;;;;;5069208;28;43567;-72
2023/07/10 03:08:00;;;;;;;1.30;1.30;;;24.40;70.60;;;;;;5086612;28;43892;-71
2023/07/10 03:10:31;;;;;;;1.20;1.20;;;24.40;71.00;;;;;;5076912;28;43462;-71
2023/07/10 03:12:59;;;;;;;1.10;1.10;;;24.30;71.00;;;;;;5059208;28;43446;-72
2023/07/10 03:15:27;;;;;;;1.30;1.30;;;24.40;70.90;;;;;;5071622;28;43512;-71
2023/07/10 03:17:56;;;;;;;1.40;1.40;;;24.50;70.50;;;;;;5087432;28;43607;-72
2023/07/10 03:20:24;;;;;;;1.27;1.27;;;24.60;70.30;;;;;;5085439;28;43896;-72
2023/07/10 03:22:52;;;;;;;1.27;1.27;;;24.60;70.30;;;;;;5071254;28;43404;-71
2023/07/10 03:25:20;;;;;;;1.40;1.40;;;24.50;70.20;;;;;;5071596;28;43438;-72
2023/07/10 03:27:48;;;;;;;1.30;1.30;;;24.50;70.50;;;;;;5085050;28;43687;-71
2023/07/10 03:30:20;;;;;;;1.30;1.30;;;24.40;70.70;;;;;;5070696;28;43504;-73
2023/07/10 03:32:48;;;;;;;1.20;1.20;;;24.40;70.80;;;;;;5054783;28;43665;-73
2023/07/10 03:35:17;;;;;;;1.30;1.30;;;24.40;70.80;;;;;;5087393;28;43399;-72
2023/07/10 03:37:45;;;;;;;1.20;1.20;;;24.40;70.90;;;;;;5085145;28;43763;-72
2023/07/10 03:40:13;;;;;;;1.10;1.10;;;24.30;70.90;;;;;;5069287;28;44767;-72
2023/07/10 03:42:41;;;;;;;1.40;1.40;;;24.30;71.10;;;;;;5068119;28;43871;-72
2023/07/10 03:45:10;;;;;;;1.37;1.37;;;24.40;70.80;;;;;;5075188;28;43392;-72
2023/07/10 03:47:38;;;;;;;1.23;1.23;;;24.50;70.60;;;;;;5058943;28;45830;-73
2023/07/10 03:50:07;;;;;;;1.40;1.40;;;24.40;70.50;;;;;;5070036;28;44751;-72
2023/07/10 03:52:36;;;;;;;1.30;1.30;;;24.40;70.70;;;;;;5069648;28;43527;-70
2023/07/10 03:55:05;;;;;;;1.30;1.30;;;24.40;70.90;;;;;;5082285;28;43372;-70
2023/07/10 03:57:33;;;;;;;1.20;1.20;;;24.40;70.80;;;;;;5083090;28;43812;-70
2023/07/10 04:00:01;;;;;;;1.30;1.30;;;24.40;70.70;;;;;;5067000;28;43434;-70
2023/07/10 04:02:39;;;;;;;1.37;1.37;;;24.40;70.80;;;;;;5063697;28;43698;-70
2023/07/10 04:05:07;;;;;;;1.27;1.27;;;24.30;71.10;;;;;;5062985;28;43383;-70
2023/07/10 04:07:36;;;;;;;1.43;1.43;;;24.30;71.10;;;;;;5069149;28;45428;-72
2023/07/10 04:10:05;;;;;;;1.40;1.40;;;24.30;71.00;;;;;;5083865;28;43919;-72
2023/07/10 04:12:33;;;;;;;1.40;1.40;;;24.30;71.10;;;;;;5081922;28;43364;-71
2023/07/10 04:15:01;;;;;;;1.30;1.30;;;24.30;71.30;;;;;;5064268;28;43507;-72
2023/07/10 04:17:29;;;;;;;1.50;1.50;;;24.30;71.50;;;;;;5064412;28;43620;-71
2023/07/10 04:19:57;;;;;;;1.43;1.43;;;24.30;71.20;;;;;;5049273;28;44672;-71
2023/07/10 04:22:25;;;;;;;1.40;1.40;;;24.40;70.90;;;;;;5058579;28;43464;-71
2023/07/10 04:24:55;;;;;;;1.50;1.50;;;24.50;70.40;;;;;;5080311;28;43468;-71
2023/07/10 04:27:23;;;;;;;1.50;1.50;;;24.60;70.20;;;;;;5071752;28;46046;-71
2023/07/10 04:29:51;;;;;;;1.53;1.53;;;24.60;70.20;;;;;;5087372;28;43407;-71
2023/07/10 04:32:18;;;;;;;1.60;1.60;;;24.50;70.10;;;;;;5082340;28;43463;-71
2023/07/10 04:34:46;;;;;;;1.77;1.77;;;24.50;70.50;;;;;;5069543;28;43447;-71
2023/07/10 04:37:15;;;;;;;1.80;1.80;;;24.40;70.60;;;;;;5075673;28;43752;-73
2023/07/10 04:39:43;;;;;;;1.70;1.60;;;24.40;70.60;;;;;;5074492;28;43479;-71
2023/07/10 04:42:14;;;;;;;1.53;1.53;;;24.40;70.70;;;;;;5061803;28;43415;-71
2023/07/10 04:44:42;;;;;;;1.70;1.70;;;24.40;71.00;;;;;;5071531;28;43562;-71
2023/07/10 04:47:10;;;;;;;1.80;1.80;;;24.30;71.10;;;;;;5082218;28;43753;-71
2023/07/10 04:49:38;;;;;;;2.10;2.00;;;24.30;71.10;;;;;;5070998;28;44509;-70
2023/07/10 04:52:07;;;;;;;2.20;2.20;;;24.30;71.10;;;;;;5073278;28;43945;-72
2023/07/10 04:54:35;;;;;;;2.90;2.70;;;24.30;71.40;;;;;;5070905;28;43510;-71
2023/07/10 04:57:04;;;;;;;2.37;2.37;;;24.20;71.40;;;;;;5069178;28;43626;-71
2023/07/10 04:59:33;;;;;;;4.63;2.40;;;24.30;71.50;;;;;;5070942;28;44304;-71
2023/07/10 05:02:01;;;;;;;4.67;2.77;;;24.30;71.40;;;;;;5087919;28;44014;-71
2023/07/10 05:04:29;;;;;;;6.00;2.77;;;24.30;71.50;;;;;;5079870;28;43404;-72
2023/07/10 05:07:02;;;;;;;3.67;2.70;;;24.20;71.70;;;;;;5084859;28;43885;-71
2023/07/10 05:09:30;;;;;;;2.63;2.40;;;24.20;71.70;;;;;;5065975;28;44411;-71
2023/07/10 05:11:58;;;;;;;2.50;2.40;;;24.30;71.50;;;;;;5076952;28;43507;-71
2023/07/10 05:14:26;;;;;;;2.90;2.67;;;24.50;71.10;;;;;;5062208;28;43526;-71
2023/07/10 05:16:56;;;;;;;2.57;2.47;;;24.60;70.70;;;;;;5072515;28;43968;-71
2023/07/10 05:19:24;;;;;;;2.67;2.50;;;24.60;70.40;;;;;;5064332;28;43399;-71
2023/07/10 05:21:52;;;;;;;2.40;2.30;;;24.60;70.40;;;;;;5074633;28;43489;-71
2023/07/10 05:24:20;;;;;;;2.43;2.37;;;24.60;70.60;;;;;;5071651;28;43916;-71
2023/07/10 05:26:48;;;;;;;2.60;2.50;;;24.50;70.90;;;;;;5080378;28;43743;-71
2023/07/10 05:29:16;;;;;;;2.67;2.57;;;24.50;70.90;;;;;;5083344;28;43328;-71
2023/07/10 05:31:44;;;;;;;2.53;2.43;;;24.50;70.90;;;;;;5079917;27;43377;-71
2023/07/10 05:34:15;;;;;;;2.90;2.77;;;24.40;71.00;;;;;;5070605;28;43598;-71
2023/07/10 05:36:43;;;;;;;2.57;2.50;;;24.40;71.30;;;;;;5077905;28;43673;-70
2023/07/10 05:39:12;;;;;;;2.63;2.40;;;24.40;71.30;;;;;;5082201;28;43494;-72
2023/07/10 05:41:40;;;;;;;2.60;2.50;;;24.40;71.30;;;;;;5085692;28;43434;-71
2023/07/10 05:44:08;;;;;;;2.50;2.40;;;24.40;71.40;;;;;;5087665;28;43340;-71
2023/07/10 05:46:36;;;;;;;2.40;2.30;;;24.30;71.60;;;;;;5072026;28;43591;-71
2023/07/10 05:49:04;;;;;;;2.23;2.23;;;24.30;71.60;;;;;;5081553;28;43385;-71
2023/07/10 05:51:33;;;;;;;2.60;2.47;;;24.40;71.40;;;;;;5070019;28;43729;-71
2023/07/10 05:54:02;;;;;;;2.37;2.37;;;24.50;71.10;;;;;;5071203;28;43710;-71
2023/07/10 05:56:30;;;;;;;2.23;2.23;;;24.60;70.60;;;;;;5067624;28;45747;-74
2023/07/10 05:58:59;;;;;;;2.40;2.40;;;24.70;70.40;;;;;;5070360;28;44785;-71
2023/07/10 06:01:27;;;;;;;2.57;2.57;;;24.70;70.30;;;;;;5079416;28;43445;-71
2023/07/10 06:03:55;;;;;;;2.50;2.40;;;24.60;70.40;;;;;;5078640;28;43402;-71
2023/07/10 06:06:23;;;;;;;2.63;2.53;;;24.60;70.80;;;;;;5085662;28;43794;-71
2023/07/10 06:08:52;;;;;;;2.20;2.20;;;24.50;70.80;;;;;;5084227;28;43462;-71
2023/07/10 06:11:20;;;;;;;2.37;2.27;;;24.50;70.80;;;;;;5083762;28;43870;-71
2023/07/10 06:13:48;;;;;;;2.60;2.50;;;24.50;70.90;;;;;;5084388;28;43546;-71
2023/07/10 06:16:16;;;;;;;2.60;2.50;;;24.50;71.30;;;;;;5065441;28;43846;-71
2023/07/10 06:18:44;;;;;;;2.30;2.30;;;24.40;71.20;;;;;;5063905;28;44303;-71
2023/07/10 06:21:12;;;;;;;2.60;2.60;;;24.40;71.20;;;;;;5074785;28;43393;-71
2023/07/10 06:23:40;;;;;;;2.80;2.70;;;24.40;71.30;;;;;;5056461;28;43405;-71
2023/07/10 06:26:09;;;;;;;2.23;2.23;;;24.40;71.50;;;;;;5065876;28;45330;-71
2023/07/10 06:28:37;;;;;;;2.22;2.10;;;24.40;71.70;;;;;;5077913;28;43990;-71
2023/07/10 06:31:07;;;;;;;2.38;2.38;;;24.40;71.60;;;;;;5081754;28;43353;-71
2023/07/10 06:33:35;;;;;;;2.50;2.40;;;24.50;71.40;;;;;;5070842;28;43428;-71
2023/07/10 06:36:04;;;;;;;2.17;2.07;;;24.60;70.90;;;;;;5083011;28;43657;-71
2023/07/10 06:38:33;;;;;;;2.60;2.50;;;24.70;70.60;;;;;;5070208;28;44735;-72
2023/07/10 06:41:01;;;;;;;2.67;2.57;;;24.70;70.40;;;;;;5082639;28;43326;-71
2023/07/10 06:43:30;;;;;;;2.50;2.50;;;24.70;70.50;;;;;;5082290;27;43951;-71
2023/07/10 06:45:58;;;;;;;2.53;2.53;;;24.70;70.80;;;;;;5065603;28;43980;-74
2023/07/10 06:48:26;;;;;;;2.23;2.23;;;24.60;70.90;;;;;;5065426;28;43344;-71
2023/07/10 06:50:54;;;;;;;2.70;2.60;;;24.60;70.90;;;;;;5088100;28;43829;-71
2023/07/10 06:53:23;;;;;;;2.40;2.40;;;24.50;71.00;;;;;;5079590;28;43769;-71
2023/07/10 06:55:55;;;;;;;2.60;2.50;;;24.50;71.20;;;;;;5038404;28;45582;-71
2023/07/10 06:58:23;;;;;;;3.13;2.70;;;24.40;72.10;;;;;;5080686;28;43440;-71
2023/07/10 07:00:53;;;;;;;2.50;2.40;;;24.50;71.50;;;;;;5086704;28;43440;-71
2023/07/10 07:03:21;;;;;;;2.97;2.80;;;24.50;71.60;;;;;;5088142;28;43387;-71
2023/07/10 07:05:50;;;;;;;2.53;2.42;;;24.40;71.60;;;;;;5065580;28;45990;-72
2023/07/10 07:08:18;;;;;;;2.80;2.60;;;24.40;71.80;;;;;;5072122;28;43939;-71
2023/07/10 07:10:46;;;;;;;2.70;2.60;;;24.40;71.70;;;;;;5078930;28;43487;-71
2023/07/10 07:13:14;;;;;;;2.67;2.57;;;24.50;71.40;;;;;;5082362;28;43999;-71
2023/07/10 07:15:42;;;;;;;2.72;2.63;;;24.70;71.10;;;;;;5079647;28;43615;-71
2023/07/10 07:18:11;;;;;;;2.90;2.70;;;24.70;70.70;;;;;;5053632;28;44398;-71
2023/07/10 07:20:39;;;;;;;3.20;3.10;;;24.80;70.70;;;;;;5073979;28;43474;-71
2023/07/10 07:23:07;;;;;;;2.90;2.70;;;24.70;70.60;;;;;;5074776;28;43392;-71
2023/07/10 07:25:35;;;;;;;2.92;2.83;;;24.70;70.90;;;;;;5054124;28;45770;-71
2023/07/10 07:28:03;;;;;;;3.05;2.92;;;24.60;71.00;;;;;;5065443;28;43438;-71
2023/07/10 07:30:32;;;;;;;3.10;2.97;;;24.60;71.10;;;;;;5058972;28;43471;-73
2023/07/10 07:33:00;;;;;;;2.80;2.60;;;24.50;71.10;;;;;;5065524;28;43458;-71
2023/07/10 07:35:29;;;;;;;3.05;2.78;;;24.50;71.30;;;;;;5082393;28;43591;-71
2023/07/10 07:37:58;;;;;;;3.10;3.00;;;24.50;71.50;;;;;;5084067;28;43661;-71
2023/07/10 07:40:26;;;;;;;2.65;2.63;;;24.50;71.50;;;;;;5065814;28;43362;-71
2023/07/10 07:42:55;;;;;;;2.93;2.83;;;24.50;71.60;;;;;;5067864;28;43448;-70
2023/07/10 07:45:23;;;;;;;3.00;2.90;;;24.40;71.60;;;;;;5061375;28;43998;-71
2023/07/10 07:47:51;;;;;;;2.90;2.80;;;24.40;71.80;;;;;;5066860;28;43366;-70
2023/07/10 07:50:19;;;;;;;3.00;2.90;;;24.50;71.80;;;;;;5065770;28;43417;-71
2023/07/10 07:52:49;;;;;;;3.10;3.00;;;24.50;71.50;;;;;;5077625;28;43384;-71
2023/07/10 07:55:16;;;;;;;2.93;2.83;;;24.70;71.20;;;;;;5068976;28;43644;-70
2023/07/10 07:57:45;;;;;;;3.30;3.10;;;24.70;70.80;;;;;;5064422;28;43424;-70
2023/07/10 08:00:14;;;;;;;3.27;3.00;;;24.70;70.70;;;;;;5055381;28;43555;-71
2023/07/10 08:02:43;;;;;;;3.10;2.90;;;24.70;70.70;;;;;;5068937;28;43554;-71
2023/07/10 08:05:11;;;;;;;3.10;3.00;;;24.70;71.00;;;;;;5085503;28;43841;-71
2023/07/10 08:08:00;;;;;;;3.23;3.13;;;24.60;71.20;;;;;;5080658;28;43391;-71
2023/07/10 08:10:33;;;;;;;2.87;2.77;;;24.60;71.20;;;;;;5084731;28;43759;-71
2023/07/10 08:13:02;;;;;;;3.60;3.50;;;24.50;71.20;;;;;;5069254;28;43940;-70
2023/07/10 08:15:30;;;;;;;3.33;3.10;;;24.50;71.40;;;;;;5061265;28;45670;-70
2023/07/10 08:17:58;;;;;;;3.50;3.40;;;24.40;71.60;;;;;;5062643;28;44703;-71
2023/07/10 08:20:26;;;;;;;3.65;3.55;;;24.40;72.30;;;;;;5085822;28;43402;-70
2023/07/10 08:22:54;;;;;;;3.35;3.25;;;24.40;71.60;;;;;;5083144;28;44162;-71
2023/07/10 08:25:23;;;;;;;3.50;3.40;;;24.40;71.80;;;;;;5069180;28;45693;-71
2023/07/10 08:27:51;;;;;;;3.40;3.30;;;24.40;72.00;;;;;;5068046;28;44881;-70
2023/07/10 08:30:19;;;;;;;3.10;3.00;;;24.40;71.90;;;;;;5071089;28;43463;-70
2023/07/10 08:32:47;;;;;;;3.57;3.47;;;24.50;71.70;;;;;;5073096;28;43419;-72
2023/07/10 08:35:16;;;;;;;3.67;3.50;;;24.60;71.40;;;;;;5064565;28;43878;-72
2023/07/10 08:37:44;;;;;;;3.37;3.27;;;24.70;71.00;;;;;;5051760;28;44692;-71
2023/07/10 08:40:15;;;;;;;3.57;3.47;;;24.70;70.90;;;;;;5075567;28;43458;-70
2023/07/10 08:42:45;;;;;;;2.90;2.80;;;24.70;70.80;;;;;;5064676;28;43518;-71
2023/07/10 08:45:14;;;;;;;2.97;2.97;;;24.70;71.00;;;;;;5065240;28;45863;-71
2023/07/10 08:47:45;;;;;;;3.43;3.33;;;24.60;71.20;;;;;;5081559;28;43457;-71
2023/07/10 08:50:15;;;;;;;3.47;3.38;;;24.60;71.20;;;;;;5074966;28;43407;-71
2023/07/10 08:52:47;;;;;;;3.33;3.23;;;24.50;71.20;;;;;;5065566;28;43357;-70
2023/07/10 08:55:18;;;;;;;3.30;3.20;;;24.50;71.40;;;;;;5080687;28;43795;-71
2023/07/10 08:57:51;;;;;;;3.40;3.30;;;24.50;71.70;;;;;;5077095;28;43898;-72
2023/07/10 09:00:19;;;;;;;3.10;3.00;;;24.40;71.60;;;;;;5065528;28;43344;-70
2023/07/10 09:02:51;;;;;;;3.20;3.10;;;24.40;71.70;;;;;;5068491;28;43396;-71
2023/07/10 09:05:21;;;;;;;2.90;2.90;;;24.40;71.80;;;;;;5062360;28;44007;-71
2023/07/10 09:07:49;;;;;;;3.17;3.07;;;24.40;72.00;;;;;;5076898;28;43974;-70
2023/07/10 09:10:19;;;;;;;3.10;3.00;;;24.40;72.00;;;;;;5072352;28;43529;-71
2023/07/10 09:12:50;;;;;;;3.33;3.23;;;24.50;71.80;;;;;;5068747;28;44076;-76
2023/07/10 09:15:21;;;;;;;3.07;2.97;;;24.50;71.30;;;;;;5065389;28;43788;-71
2023/07/10 09:17:55;;;;;;;3.27;3.17;;;24.70;71.10;;;;;;5074761;28;43358;-70
2023/07/10 09:20:24;;;;;;;3.40;3.30;;;24.60;70.90;;;;;;5076066;28;43358;-71
2023/07/10 09:22:53;;;;;;;3.10;2.90;;;24.60;70.90;;;;;;5080707;28;43352;-72
2023/07/10 09:25:22;;;;;;;3.58;3.45;;;24.60;71.30;;;;;;5065679;28;43834;-70
2023/07/10 09:27:51;;;;;;;3.28;3.17;;;24.50;71.30;;;;;;5062617;28;43492;-73
2023/07/10 09:30:35;;;;;;;3.00;2.90;;;24.50;71.40;;;;;;5069319;28;43388;-70
2023/07/10 09:33:04;;;;;;;3.03;2.97;;;24.50;71.40;;;;;;5074896;28;43300;-70
2023/07/10 09:35:32;;;;;;;3.17;3.08;;;24.40;71.60;;;;;;5071296;28;43909;-73
2023/07/10 09:38:01;;;;;;;3.08;3.08;;;24.40;71.70;;;;;;5051344;28;44710;-70
2023/07/10 09:40:37;;;;;;;2.90;2.80;;;24.40;71.80;;;;;;5074477;28;43428;-71
2023/07/10 09:43:10;;;;;;;2.83;2.73;;;24.40;71.80;;;;;;5075473;28;43437;-70
2023/07/10 09:45:41;;;;;;;3.00;2.90;;;24.40;71.90;;;;;;5053365;28;44032;-71
2023/07/10 09:48:15;;;;;;;3.13;3.03;;;24.30;72.00;;;;;;5069242;28;44946;-70
2023/07/10 09:50:44;;;;;;;2.87;2.77;;;24.40;72.00;;;;;;5068388;28;43433;-71
2023/07/10 09:53:29;;;;;;;3.10;3.00;;;24.50;71.70;;;;;;5067031;28;43470;-71
2023/07/10 09:55:57;;;;;;;3.13;3.03;;;24.60;71.30;;;;;;5044731;28;43761;-70
2023/07/10 09:58:27;;;;;;;3.25;3.15;;;24.70;71.00;;;;;;5069389;28;43417;-71
2023/07/10 10:00:55;;;;;;;2.53;2.53;;;24.70;70.90;;;;;;5068582;28;43491;-71
2023/07/10 10:03:26;;;;;;;3.10;3.00;;;24.70;70.90;;;;;;5064666;28;43926;-72
2023/07/10 10:05:56;;;;;;;2.93;2.83;;;24.60;71.20;;;;;;5067149;28;45360;-71
2023/07/10 10:08:26;;;;;;;2.65;2.65;;;24.50;71.20;;;;;;5076745;28;43355;-72
2023/07/10 10:11:01;;;;;;;2.90;2.90;;;24.50;71.30;;;;;;5081899;28;43997;-71
2023/07/10 10:13:32;;;;;;;2.77;2.77;;;24.50;71.40;;;;;;5070703;28;43511;-71
2023/07/10 10:16:03;;;;;;;2.77;2.77;;;24.50;71.70;;;;;;5072359;28;43892;-70
2023/07/10 10:18:40;;;;;;;2.90;2.80;;;24.40;71.60;;;;;;5074856;28;43479;-72
2023/07/10 10:21:10;;;;;;;2.80;2.80;;;24.40;71.70;;;;;;5082909;28;43557;-71
2023/07/10 10:23:39;;;;;;;3.00;3.00;;;24.40;71.70;;;;;;5066850;28;43903;-70
2023/07/10 10:26:25;;;;;;;2.95;2.85;;;24.40;71.90;;;;;;5064117;28;43731;-71
2023/07/10 10:29:07;;;;;;;2.50;2.50;;;24.40;72.10;;;;;;5060561;28;44857;-71
2023/07/10 10:31:38;;;;;;;2.90;2.80;;;24.40;71.90;;;;;;5071216;28;43400;-71
2023/07/10 10:34:11;;;;;;;3.00;2.90;;;24.50;71.60;;;;;;5059933;28;43599;-71
2023/07/10 10:36:41;;;;;;;3.30;3.20;;;24.60;71.10;;;;;;5070944;28;43755;-71
2023/07/10 10:39:14;;;;;;;2.90;2.80;;;24.70;71.00;;;;;;5075946;28;43451;-72
2023/07/10 10:41:45;;;;;;;2.80;2.80;;;24.60;70.90;;;;;;5067513;28;43486;-71
2023/07/10 10:44:26;;;;;;;3.03;3.03;;;24.60;71.00;;;;;;5071602;28;43438;-71
2023/07/10 10:47:00;;;;;;;3.00;2.80;;;24.50;71.30;;;;;;5074960;28;43851;-70
2023/07/10 10:49:39;;;;;;;3.00;3.00;;;24.50;71.30;;;;;;5070737;28;43419;-71
2023/07/10 10:52:12;;;;;;;3.08;2.97;;;24.50;71.40;;;;;;5075312;28;43427;-70
2023/07/10 10:54:43;;;;;;;2.90;2.80;;;24.40;71.50;;;;;;5078839;28;43483;-72
2023/07/10 10:57:24;;;;;;;3.08;2.97;;;24.40;71.80;;;;;;5077454;28;43660;-70
2023/07/10 10:59:59;;;;;;;2.80;2.80;;;24.40;71.80;;;;;;5075422;28;43557;-71
2023/07/10 11:02:34;;;;;;;4.07;3.33;;;24.40;71.80;;;;;;5060581;28;43482;-71
2023/07/10 11:05:09;;;;;;;2.80;2.80;;;24.40;71.90;;;;;;5058566;28;43576;-70
2023/07/10 11:07:37;;;;;;;2.60;2.60;;;24.40;72.10;;;;;;5065403;28;45365;-70
2023/07/10 11:10:11;;;;;;;2.90;2.90;;;24.40;72.10;;;;;;5063485;28;43412;-71
2023/07/10 11:12:39;;;;;;;3.33;3.00;;;24.40;72.00;;;;;;5054804;28;43427;-73
2023/07/10 11:15:15;;;;;;;3.03;2.93;;;24.40;72.00;;;;;;5074815;28;43573;-71
2023/07/10 11:17:44;;;;;;;3.30;3.13;;;24.30;72.30;;;;;;5058523;28;45964;-71
2023/07/10 11:20:12;;;;;;;2.80;2.70;;;24.30;72.10;;;;;;5074009;28;43464;-70
2023/07/10 11:22:48;;;;;;;2.90;2.80;;;24.40;72.00;;;;;;5071711;28;43351;-72
2023/07/10 11:25:29;;;;;;;2.80;2.80;;;24.50;71.60;;;;;;5072730;28;43932;-70
2023/07/10 11:27:57;;;;;;;3.00;2.90;;;24.70;71.20;;;;;;5073893;28;43756;-70
2023/07/10 11:30:33;;;;;;;3.17;2.97;;;24.70;71.00;;;;;;5072088;28;43353;-72
2023/07/10 11:33:05;;;;;;;2.90;2.90;;;24.70;71.00;;;;;;5076702;28;43727;-70
2023/07/10 11:35:33;;;;;;;3.43;3.13;;;24.60;71.20;;;;;;5076918;28;43388;-71
2023/07/10 11:38:14;;;;;;;3.00;2.90;;;24.60;71.40;;;;;;5075067;28;44071;-71
2023/07/10 11:40:50;;;;;;;3.40;3.27;;;24.60;71.50;;;;;;5061018;28;44627;-71
2023/07/10 11:43:47;;;;;;;3.30;3.00;;;24.50;71.40;;;;;;5066295;28;43468;-70
2023/07/10 11:46:32;;;;;;;3.27;3.10;;;24.40;71.70;;;;;;5049376;28;43568;-70
2023/07/10 11:49:13;;;;;;;3.47;3.27;;;24.40;71.80;;;;;;5080735;28;43699;-72
2023/07/10 11:51:42;;;;;;;3.60;3.40;;;24.40;71.80;;;;;;5085237;28;43945;-70
2023/07/10 11:54:47;;;;;;;3.53;3.23;;;24.40;71.90;;;;;;5079755;28;43398;-71
2023/07/10 11:57:18;;;;;;;4.03;3.73;;;24.40;72.20;;;;;;5086655;28;43448;-72
2023/07/10 11:59:49;;;;;;;3.90;3.60;;;24.40;72.10;;;;;;5089731;28;43940;-70
2023/07/10 12:02:48;;;;;;;3.53;3.33;;;24.50;72.00;;;;;;5082968;28;44047;-71
2023/07/10 12:05:17;;;;;;;4.20;3.90;;;24.60;71.60;;;;;;5083307;28;43917;-71
2023/07/10 12:07:56;;;;;;;4.10;3.80;;;24.70;71.20;;;;;;5075631;28;43395;-70
2023/07/10 12:10:29;;;;;;;4.37;3.97;;;24.70;71.10;;;;;;5076862;28;43855;-71
2023/07/10 12:12:58;;;;;;;4.97;3.90;;;24.70;71.10;;;;;;5081339;28;43445;-70
2023/07/10 12:15:26;;;;;;;5.00;3.72;;;24.60;71.40;;;;;;5075204;28;43470;-70
2023/07/10 12:17:56;;;;;;;3.73;3.50;;;24.60;71.50;;;;;;5065366;28;43404;-72
2023/07/10 12:20:29;;;;;;;3.97;3.67;;;24.50;71.40;;;;;;5062742;28;43662;-72
2023/07/10 12:23:02;;;;;;;4.30;4.00;;;24.50;71.50;;;;;;5065045;28;43898;-71
2023/07/10 12:25:30;;;;;;;4.80;4.37;;;24.50;71.80;;;;;;5068256;28;43414;-70
2023/07/10 12:28:01;;;;;;;3.40;3.20;;;24.50;71.90;;;;;;5072641;28;43492;-72
2023/07/10 12:30:50;;;;;;;6.30;4.53;;;24.50;71.90;;;;;;5071208;28;43871;-71
2023/07/10 12:33:33;;;;;;;4.10;3.80;;;24.40;72.50;;;;;;5068875;28;43511;-71
2023/07/10 12:36:03;;;;;;;4.40;4.10;;;24.40;72.00;;;;;;5081031;28;43354;-70
2023/07/10 12:38:32;;;;;;;4.53;4.13;;;24.40;72.20;;;;;;5087866;28;43498;-71
2023/07/10 12:41:00;;;;;;;4.87;4.27;;;24.40;72.10;;;;;;5083976;27;43609;-73
2023/07/10 12:43:29;;;;;;;5.60;4.60;;;24.40;72.10;;;;;;5050934;28;44454;-70
2023/07/10 12:45:58;;;;;;;5.97;4.38;;;24.40;72.20;;;;;;5071135;28;43377;-70
2023/07/10 12:48:27;;;;;;;5.07;4.67;;;24.40;72.30;;;;;;5077717;28;43377;-71
2023/07/10 12:50:58;;;;;;;5.00;4.47;;;24.40;72.20;;;;;;5078947;28;43897;-70
2023/07/10 12:53:30;;;;;;;5.18;4.38;;;24.50;71.90;;;;;;5076264;28;43380;-70
2023/07/10 12:56:06;;;;;;;7.20;4.83;;;24.60;71.50;;;;;;5087043;28;43364;-70
2023/07/10 12:58:37;;;;;;;5.27;4.33;;;24.70;71.10;;;;;;5090097;28;43332;-70
2023/07/10 13:01:17;;;;;;;7.10;4.37;;;24.80;71.00;;;;;;5071232;28;46345;-71
2023/07/10 13:03:46;;;;;;;5.00;4.50;;;24.70;70.90;;;;;;5079063;28;43372;-71